Time;durP1;ratioP1;P1;durP2;ratioP2;P2;SDS_P1;SDS_P2;PMS_P1;PMS_P2;Temp;Humidity;BMP_temperature;BMP_pressure;BME280_temperature;BME280_humidity;BME280_pressure;Samples;Min_cycle;Max_cycle;Signal;HPM_P1;HPM_P2
2021/05/07 00:01:09;0.00;0.00;0.62;0.00;0.00;0.62;2.10;1.40;;;25.30;22.40;;;;;;2257982;61;20368;-61
2021/05/07 00:03:36;0.00;0.00;0.62;0.00;0.00;0.62;1.60;1.20;;;25.30;22.40;;;;;;2257297;61;20367;-61
2021/05/07 00:06:04;0.00;0.00;0.62;0.00;0.00;0.62;2.37;1.40;;;25.30;22.40;;;;;;2257985;61;20400;-61
2021/05/07 00:08:33;0.00;0.00;0.62;0.00;0.00;0.62;2.90;1.50;;;25.20;22.40;;;;;;2257889;61;20678;-61
2021/05/07 00:11:03;0.00;0.00;0.62;0.00;0.00;0.62;1.73;1.30;;;25.30;22.40;;;;;;2257285;61;20352;-61
2021/05/07 00:13:29;0.00;0.00;0.62;0.00;0.00;0.62;1.40;1.10;;;25.20;22.40;;;;;;2257935;61;20357;-61
2021/05/07 00:15:56;0.00;0.00;0.62;0.00;0.00;0.62;1.60;1.20;;;25.20;22.40;;;;;;2257674;61;20384;-61
2021/05/07 00:18:23;0.00;0.00;0.62;0.00;0.00;0.62;2.13;1.40;;;25.20;22.40;;;;;;2257416;61;20914;-61
2021/05/07 00:20:50;0.00;0.00;0.62;0.00;0.00;0.62;2.67;1.40;;;25.20;22.40;;;;;;2257506;61;20352;-61
2021/05/07 00:23:16;0.00;0.00;0.62;0.00;0.00;0.62;1.80;1.20;;;25.20;22.40;;;;;;2257974;61;20566;-61
2021/05/07 00:25:44;0.00;0.00;0.62;0.00;0.00;0.62;1.30;1.10;;;25.20;22.40;;;;;;2256976;61;20375;-61
2021/05/07 00:28:13;0.00;0.00;0.62;0.00;0.00;0.62;1.53;1.10;;;25.20;22.40;;;;;;2257825;61;20364;-61
2021/05/07 00:30:40;0.00;0.00;0.62;0.00;0.00;0.62;1.60;1.30;;;25.10;22.80;;;;;;2257594;61;20811;-61
2021/05/07 00:33:08;0.00;0.00;0.62;0.00;0.00;0.62;1.73;1.20;;;25.10;22.30;;;;;;2257148;61;20383;-60
2021/05/07 00:35:35;0.00;0.00;0.62;0.00;0.00;0.62;3.17;1.40;;;25.10;22.30;;;;;;2257627;61;20622;-61
2021/05/07 00:38:03;0.00;0.00;0.62;0.00;0.00;0.62;1.60;1.30;;;25.10;22.30;;;;;;2257848;61;20704;-61
2021/05/07 00:40:31;0.00;0.00;0.62;0.00;0.00;0.62;3.03;1.40;;;25.10;22.30;;;;;;2257120;61;20356;-61
2021/05/07 00:42:58;0.00;0.00;0.62;0.00;0.00;0.62;1.70;1.40;;;25.10;22.30;;;;;;2257970;61;20353;-61
2021/05/07 00:45:28;0.00;0.00;0.62;0.00;0.00;0.62;1.50;1.23;;;25.10;22.30;;;;;;2250876;61;20377;-61
2021/05/07 00:47:59;0.00;0.00;0.62;0.00;0.00;0.62;2.23;1.67;;;25.00;22.30;;;;;;2256918;61;20419;-61
2021/05/07 00:50:27;0.00;0.00;0.62;0.00;0.00;0.62;1.90;1.17;;;25.10;22.30;;;;;;2257878;61;20352;-61
2021/05/07 00:52:55;0.00;0.00;0.62;0.00;0.00;0.62;1.97;1.20;;;25.10;22.30;;;;;;2257516;61;20364;-61
2021/05/07 00:55:22;0.00;0.00;0.62;0.00;0.00;0.62;1.90;1.33;;;25.00;22.30;;;;;;2252756;61;20392;-61
2021/05/07 00:57:50;0.00;0.00;0.62;0.00;0.00;0.62;1.67;1.10;;;25.00;22.30;;;;;;2254181;61;20364;-60
2021/05/07 01:00:18;0.00;0.00;0.62;0.00;0.00;0.62;2.00;1.20;;;25.00;22.30;;;;;;2257724;61;20359;-61
2021/05/07 01:02:46;0.00;0.00;0.62;0.00;0.00;0.62;1.90;1.40;;;25.00;22.30;;;;;;2256488;61;20360;-61
2021/05/07 01:05:13;0.00;0.00;0.62;0.00;0.00;0.62;1.83;1.30;;;25.00;22.40;;;;;;2257778;61;20456;-61
2021/05/07 01:07:41;0.00;0.00;0.62;0.00;0.00;0.62;1.60;1.30;;;25.00;22.30;;;;;;2253870;61;20364;-61
2021/05/07 01:10:11;0.00;0.00;0.62;0.00;0.00;0.62;2.30;1.37;;;24.90;22.20;;;;;;2253114;61;20384;-61
2021/05/07 01:12:40;0.00;0.00;0.62;0.00;0.00;0.62;2.73;1.47;;;24.90;22.20;;;;;;2258040;61;20355;-60
2021/05/07 01:15:10;0.00;0.00;0.62;0.00;0.00;0.62;2.13;1.40;;;24.90;22.20;;;;;;2257467;61;20428;-61
2021/05/07 01:17:42;0.00;0.00;0.62;0.00;0.00;0.62;2.50;1.17;;;24.90;22.20;;;;;;2256838;61;20348;-61
2021/05/07 01:20:13;0.00;0.00;0.62;0.00;0.00;0.62;2.60;1.70;;;24.90;22.30;;;;;;2258157;61;20623;-61
2021/05/07 01:22:40;0.00;0.00;0.62;0.00;0.00;0.62;1.60;1.10;;;24.90;22.20;;;;;;2257210;61;20368;-61
2021/05/07 01:25:09;0.00;0.00;0.62;0.00;0.00;0.62;2.83;1.00;;;24.90;22.20;;;;;;2256879;61;20400;-61
2021/05/07 01:27:38;0.00;0.00;0.62;0.00;0.00;0.62;1.87;1.10;;;24.90;22.20;;;;;;2257892;61;20360;-61
2021/05/07 01:30:13;0.00;0.00;0.62;0.00;0.00;0.62;1.57;1.10;;;24.90;22.20;;;;;;2257510;61;20365;-61
2021/05/07 01:32:40;0.00;0.00;0.62;0.00;0.00;0.62;2.13;1.07;;;24.90;22.20;;;;;;2256963;61;20559;-61
2021/05/07 01:35:15;0.00;0.00;0.62;0.00;0.00;0.62;3.17;1.40;;;24.80;22.10;;;;;;2257710;61;20399;-61
2021/05/07 01:37:45;0.00;0.00;0.62;0.00;0.00;0.62;1.80;1.30;;;24.80;22.10;;;;;;2257068;61;20452;-61
2021/05/07 01:40:16;0.00;0.00;0.62;0.00;0.00;0.62;2.53;1.43;;;24.80;22.10;;;;;;2256845;61;20371;-61
2021/05/07 01:42:44;0.00;0.00;0.62;0.00;0.00;0.62;2.57;1.60;;;24.80;22.10;;;;;;2257840;61;20357;-61
2021/05/07 01:45:12;0.00;0.00;0.62;0.00;0.00;0.62;1.93;1.30;;;24.80;22.10;;;;;;2257052;61;20502;-61
2021/05/07 01:47:39;0.00;0.00;0.62;0.00;0.00;0.62;1.50;1.20;;;24.80;22.10;;;;;;2253496;61;20352;-61
2021/05/07 01:50:08;0.00;0.00;0.62;0.00;0.00;0.62;2.20;1.33;;;24.70;22.10;;;;;;2258090;61;20387;-61
2021/05/07 01:52:36;0.00;0.00;0.62;0.00;0.00;0.62;1.70;1.20;;;24.70;22.00;;;;;;2256704;61;20422;-61
2021/05/07 01:55:06;0.00;0.00;0.62;0.00;0.00;0.62;2.50;1.10;;;24.70;22.00;;;;;;2256524;61;20725;-61
2021/05/07 01:57:34;0.00;0.00;0.62;0.00;0.00;0.62;1.40;1.10;;;24.70;22.10;;;;;;2257740;61;20931;-61
2021/05/07 02:00:05;0.00;0.00;0.62;0.00;0.00;0.62;1.50;1.33;;;24.70;22.00;;;;;;2257117;61;20353;-61
2021/05/07 02:02:42;0.00;0.00;0.62;0.00;0.00;0.62;1.47;1.37;;;24.70;22.00;;;;;;2257767;61;20356;-61
2021/05/07 02:05:18;0.00;0.00;0.62;0.00;0.00;0.62;1.60;1.40;;;24.70;22.00;;;;;;2257072;61;20380;-61
2021/05/07 02:07:47;0.00;0.00;0.62;0.00;0.00;0.62;1.43;1.10;;;24.60;22.00;;;;;;2256170;61;20360;-61
2021/05/07 02:10:17;0.00;0.00;0.62;0.00;0.00;0.62;2.20;1.30;;;24.60;22.00;;;;;;2257709;61;20396;-62
2021/05/07 02:12:45;0.00;0.00;0.62;0.00;0.00;0.62;1.40;1.20;;;24.60;22.00;;;;;;2257063;61;20367;-61
2021/05/07 02:15:16;0.00;0.00;0.62;0.00;0.00;0.62;2.00;1.70;;;24.60;22.50;;;;;;2256637;61;20380;-61
2021/05/07 02:17:47;0.00;0.00;0.62;0.00;0.00;0.62;1.50;1.20;;;24.60;22.00;;;;;;2257107;61;20372;-61
2021/05/07 02:20:15;0.00;0.00;0.62;0.00;0.00;0.62;1.60;1.30;;;24.60;22.00;;;;;;2257430;61;20415;-61
2021/05/07 02:22:43;0.00;0.00;0.62;0.00;0.00;0.62;1.57;1.00;;;24.60;22.50;;;;;;2256493;61;20363;-61
2021/05/07 02:25:13;0.00;0.00;0.62;0.00;0.00;0.62;1.87;1.03;;;24.50;21.90;;;;;;2257453;61;20372;-61
2021/05/07 02:27:40;0.00;0.00;0.62;0.00;0.00;0.62;1.80;1.33;;;24.50;21.90;;;;;;2257200;61;20561;-61
2021/05/07 02:30:10;0.00;0.00;0.62;0.00;0.00;0.62;1.60;1.10;;;24.50;21.90;;;;;;2257059;61;20360;-61
2021/05/07 02:32:37;0.00;0.00;0.62;0.00;0.00;0.62;1.50;1.10;;;24.50;21.90;;;;;;2253776;61;20388;-61
2021/05/07 02:35:05;0.00;0.00;0.62;0.00;0.00;0.62;1.60;1.20;;;24.50;21.90;;;;;;2256688;61;20384;-61
2021/05/07 02:37:32;0.00;0.00;0.62;0.00;0.00;0.62;2.37;1.40;;;24.50;21.90;;;;;;2256897;61;20414;-61
2021/05/07 02:39:59;0.00;0.00;0.62;0.00;0.00;0.62;1.90;1.50;;;24.50;21.90;;;;;;2256979;61;20375;-61
2021/05/07 02:42:26;0.00;0.00;0.62;0.00;0.00;0.62;2.70;1.47;;;24.40;21.80;;;;;;2257007;61;20723;-61
2021/05/07 02:44:53;0.00;0.00;0.62;0.00;0.00;0.62;1.70;1.20;;;24.40;21.90;;;;;;2256907;61;20391;-60
2021/05/07 02:47:20;0.00;0.00;0.62;0.00;0.00;0.62;1.60;1.30;;;24.40;21.90;;;;;;2256666;61;20380;-61
2021/05/07 02:49:49;0.00;0.00;0.62;0.00;0.00;0.62;1.47;1.20;;;24.40;21.80;;;;;;2253772;61;20356;-61
2021/05/07 02:52:16;0.00;0.00;0.62;0.00;0.00;0.62;1.97;1.77;;;24.40;21.80;;;;;;2256556;61;20379;-61
2021/05/07 02:54:43;0.00;0.00;0.62;0.00;0.00;0.62;1.40;1.17;;;24.30;21.80;;;;;;2257202;61;20376;-61
2021/05/07 02:57:10;0.00;0.00;0.62;0.00;0.00;0.62;1.70;1.30;;;24.30;21.80;;;;;;2257616;61;20392;-61
2021/05/07 02:59:37;0.00;0.00;0.62;0.00;0.00;0.62;1.30;1.20;;;24.30;21.80;;;;;;2256339;61;20459;-60
2021/05/07 03:02:04;0.00;0.00;0.62;0.00;0.00;0.62;1.60;1.20;;;24.30;21.80;;;;;;2257286;61;20412;-61
2021/05/07 03:04:31;0.00;0.00;0.62;0.00;0.00;0.62;1.93;1.27;;;24.30;21.80;;;;;;2257462;61;20360;-61
2021/05/07 03:06:59;0.00;0.00;0.62;0.00;0.00;0.62;1.67;1.30;;;24.30;21.80;;;;;;2256659;61;20396;-61
2021/05/07 03:09:26;0.00;0.00;0.62;0.00;0.00;0.62;1.67;1.07;;;24.30;21.80;;;;;;2257185;61;20376;-61
2021/05/07 03:11:54;0.00;0.00;0.62;0.00;0.00;0.62;2.37;1.20;;;24.20;21.70;;;;;;2257526;61;20367;-61
2021/05/07 03:14:21;0.00;0.00;0.62;0.00;0.00;0.62;2.00;1.53;;;24.20;21.70;;;;;;2256496;61;20707;-61
2021/05/07 03:16:48;0.00;0.00;0.62;0.00;0.00;0.62;1.60;1.50;;;24.20;21.70;;;;;;2257108;61;20657;-61
2021/05/07 03:19:15;0.00;0.00;0.62;0.00;0.00;0.62;2.27;1.30;;;24.20;21.70;;;;;;2257755;61;20436;-60
2021/05/07 03:21:41;0.00;0.00;0.62;0.00;0.00;0.62;2.03;1.30;;;24.20;21.70;;;;;;2256616;61;20587;-61
2021/05/07 03:24:09;0.00;0.00;0.62;0.00;0.00;0.62;1.70;1.10;;;24.20;21.70;;;;;;2258443;61;20352;-60
2021/05/07 03:26:36;0.00;0.00;0.62;0.00;0.00;0.62;1.40;1.30;;;24.10;21.60;;;;;;2258895;61;20425;-61
2021/05/07 03:29:03;0.00;0.00;0.62;0.00;0.00;0.62;1.57;1.47;;;24.10;21.60;;;;;;2257762;61;20352;-61
2021/05/07 03:31:30;0.00;0.00;0.62;0.00;0.00;0.62;1.40;1.10;;;24.10;21.60;;;;;;2258579;61;20582;-61
2021/05/07 03:33:58;0.00;0.00;0.62;0.00;0.00;0.62;1.70;1.17;;;24.10;21.60;;;;;;2258719;61;20409;-61
2021/05/07 03:36:24;0.00;0.00;0.62;0.00;0.00;0.62;1.53;1.30;;;24.10;21.60;;;;;;2257724;61;20438;-61
2021/05/07 03:38:51;0.00;0.00;0.62;0.00;0.00;0.62;1.50;1.30;;;24.10;21.60;;;;;;2258631;61;20356;-61
2021/05/07 03:41:17;0.00;0.00;0.62;0.00;0.00;0.62;1.40;1.17;;;24.10;21.60;;;;;;2258830;61;20356;-61
2021/05/07 03:43:44;0.00;0.00;0.62;0.00;0.00;0.62;1.30;0.90;;;24.00;21.60;;;;;;2257706;61;20367;-61
2021/05/07 03:46:10;0.00;0.00;0.62;0.00;0.00;0.62;1.30;0.90;;;24.00;21.60;;;;;;2258463;61;20370;-60
2021/05/07 03:48:37;0.00;0.00;0.62;0.00;0.00;0.62;1.20;0.87;;;24.00;21.60;;;;;;2258799;61;20392;-61
2021/05/07 03:51:04;0.00;0.00;0.62;0.00;0.00;0.62;1.67;1.00;;;24.00;21.60;;;;;;2258074;61;20357;-61
2021/05/07 03:53:31;0.00;0.00;0.62;0.00;0.00;0.62;3.93;1.20;;;24.00;21.60;;;;;;2258542;61;20431;-61
2021/05/07 03:55:58;0.00;0.00;0.62;0.00;0.00;0.62;1.43;1.13;;;24.00;21.60;;;;;;2258287;61;20427;-61
2021/05/07 03:58:24;0.00;0.00;0.62;0.00;0.00;0.62;1.73;1.20;;;23.90;21.50;;;;;;2258263;61;20566;-60
2021/05/07 04:00:51;0.00;0.00;0.62;0.00;0.00;0.62;1.53;1.20;;;23.90;21.50;;;;;;2258445;61;20356;-60
2021/05/07 04:03:18;0.00;0.00;0.62;0.00;0.00;0.62;1.60;1.20;;;23.90;21.50;;;;;;2258805;61;20356;-61
2021/05/07 04:05:48;0.00;0.00;0.62;0.00;0.00;0.62;1.50;1.20;;;23.90;21.50;;;;;;2258054;61;20376;-61
2021/05/07 04:08:20;0.00;0.00;0.62;0.00;0.00;0.62;1.50;1.10;;;23.90;21.50;;;;;;2254137;61;20360;-61
2021/05/07 04:10:52;0.00;0.00;0.62;0.00;0.00;0.62;1.60;1.20;;;23.90;21.70;;;;;;2255094;61;20624;-61
2021/05/07 04:16:00;0.00;0.00;0.62;0.00;0.00;0.62;1.60;1.00;;;23.90;21.50;;;;;;2258532;61;20719;-60
2021/05/07 04:18:27;0.00;0.00;0.62;0.00;0.00;0.62;1.63;1.00;;;23.90;21.60;;;;;;2258628;61;20361;-60
2021/05/07 04:20:54;0.00;0.00;0.62;0.00;0.00;0.62;1.50;1.13;;;23.90;21.60;;;;;;2257776;61;20363;-61
2021/05/07 04:23:21;0.00;0.00;0.62;0.00;0.00;0.62;1.23;0.93;;;23.90;21.60;;;;;;2258547;61;20367;-61
2021/05/07 04:25:49;0.00;0.00;0.62;0.00;0.00;0.62;1.30;0.93;;;23.90;21.70;;;;;;2258393;61;20376;-61
2021/05/07 04:28:16;0.00;0.00;0.62;0.00;0.00;0.62;1.40;0.93;;;23.80;21.70;;;;;;2257706;61;20357;-61
2021/05/07 04:30:42;0.00;0.00;0.62;0.00;0.00;0.62;1.40;1.07;;;23.80;21.70;;;;;;2258106;61;20552;-60
2021/05/07 04:33:09;0.00;0.00;0.62;0.00;0.00;0.62;1.40;1.00;;;23.80;21.80;;;;;;2258676;61;20360;-60
2021/05/07 04:35:35;0.00;0.00;0.62;0.00;0.00;0.62;1.67;1.10;;;23.80;21.80;;;;;;2256751;61;20598;-60
2021/05/07 04:38:04;0.00;0.00;0.62;0.00;0.00;0.62;1.50;0.90;;;23.80;21.80;;;;;;2257900;61;20361;-60
2021/05/07 04:40:32;0.00;0.00;0.62;0.00;0.00;0.62;1.70;0.90;;;23.80;21.80;;;;;;2257954;61;20384;-61
2021/05/07 04:43:01;0.00;0.00;0.62;0.00;0.00;0.62;2.90;0.93;;;23.80;21.80;;;;;;2257181;61;20702;-60
2021/05/07 04:45:28;0.00;0.00;0.62;0.00;0.00;0.62;1.17;0.80;;;23.80;21.80;;;;;;2257720;61;20492;-60
2021/05/07 04:47:55;0.00;0.00;0.62;0.00;0.00;0.62;1.20;0.80;;;23.80;21.90;;;;;;2257199;61;20718;-60
2021/05/07 04:50:22;0.00;0.00;0.62;0.00;0.00;0.62;1.10;0.60;;;23.80;22.00;;;;;;2257081;61;20592;-59
2021/05/07 04:52:49;0.00;0.00;0.62;0.00;0.00;0.62;1.57;1.00;;;23.70;21.90;;;;;;2254163;61;20383;-63
2021/05/07 04:55:17;0.00;0.00;0.62;0.00;0.00;0.62;2.37;0.80;;;23.70;22.00;;;;;;2257015;61;20424;-59
2021/05/07 04:57:44;0.00;0.00;0.62;0.00;0.00;0.62;1.43;0.90;;;23.70;22.00;;;;;;2257059;61;20406;-63
2021/05/07 05:00:12;0.00;0.00;0.62;0.00;0.00;0.62;1.57;0.80;;;23.70;22.10;;;;;;2257796;61;20411;-62
2021/05/07 05:02:38;0.00;0.00;0.62;0.00;0.00;0.62;2.53;0.73;;;23.70;22.10;;;;;;2258102;61;20360;-63
2021/05/07 05:05:06;0.00;0.00;0.62;0.00;0.00;0.62;1.20;0.80;;;23.70;22.20;;;;;;2256705;61;20373;-62
2021/05/07 05:07:34;0.00;0.00;0.62;0.00;0.00;0.62;1.40;0.70;;;23.70;22.20;;;;;;2257661;61;20423;-60
2021/05/07 05:10:01;0.00;0.00;0.62;0.00;0.00;0.62;1.60;0.87;;;23.70;22.20;;;;;;2257848;61;20349;-63
2021/05/07 05:12:27;0.00;0.00;0.62;0.00;0.00;0.62;2.17;0.90;;;23.70;22.30;;;;;;2257280;61;20356;-59
2021/05/07 05:14:55;0.00;0.00;0.62;0.00;0.00;0.62;1.30;0.70;;;23.70;22.30;;;;;;2257471;61;20728;-59
2021/05/07 05:17:21;0.00;0.00;0.62;0.00;0.00;0.62;1.50;0.80;;;23.80;22.40;;;;;;2257703;61;20656;-60
2021/05/07 05:19:48;0.00;0.00;0.62;0.00;0.00;0.62;1.30;0.80;;;23.80;22.40;;;;;;2257503;61;20356;-60
2021/05/07 05:22:14;0.00;0.00;0.62;0.00;0.00;0.62;1.20;0.70;;;23.80;22.40;;;;;;2257537;61;20371;-61
2021/05/07 05:24:42;0.00;0.00;0.62;0.00;0.00;0.62;1.30;0.80;;;23.80;22.40;;;;;;2257297;61;20426;-61
2021/05/07 05:27:09;0.00;0.00;0.62;0.00;0.00;0.62;1.50;0.93;;;23.80;22.30;;;;;;2257575;61;20353;-60
2021/05/07 05:29:35;0.00;0.00;0.62;0.00;0.00;0.62;1.40;0.80;;;23.80;22.30;;;;;;2257255;61;20359;-59
2021/05/07 05:32:04;0.00;0.00;0.62;0.00;0.00;0.62;1.23;0.70;;;23.80;22.30;;;;;;2254115;61;20443;-63
2021/05/07 05:34:31;0.00;0.00;0.62;0.00;0.00;0.62;1.43;0.80;;;23.80;22.30;;;;;;2257518;61;20559;-62
2021/05/07 05:36:58;0.00;0.00;0.62;0.00;0.00;0.62;1.20;0.83;;;23.80;22.30;;;;;;2257063;61;20698;-62
2021/05/07 05:39:24;0.00;0.00;0.62;0.00;0.00;0.62;1.30;0.90;;;23.80;22.30;;;;;;2257936;61;20352;-61
2021/05/07 05:41:51;0.00;0.00;0.62;0.00;0.00;0.62;2.10;0.70;;;23.80;22.30;;;;;;2257967;61;20360;-61
2021/05/07 05:44:17;0.00;0.00;0.62;0.00;0.00;0.62;1.10;0.70;;;23.80;22.30;;;;;;2256692;61;20598;-61
2021/05/07 05:46:44;0.00;0.00;0.62;0.00;0.00;0.62;1.40;0.70;;;23.80;22.30;;;;;;2257698;61;20356;-62
2021/05/07 05:49:11;0.00;0.00;0.62;0.00;0.00;0.62;1.83;0.80;;;23.80;22.30;;;;;;2257673;61;20353;-62
2021/05/07 05:51:38;0.00;0.00;0.62;0.00;0.00;0.62;1.20;0.77;;;23.80;22.30;;;;;;2256926;61;20404;-62
2021/05/07 05:54:05;0.00;0.00;0.62;0.00;0.00;0.62;1.40;0.90;;;23.80;22.30;;;;;;2253965;61;20468;-62
2021/05/07 05:56:32;0.00;0.00;0.62;0.00;0.00;0.62;1.20;0.70;;;23.80;22.30;;;;;;2257427;61;20482;-62
2021/05/07 05:58:58;0.00;0.00;0.62;0.00;0.00;0.62;1.20;0.80;;;23.80;22.30;;;;;;2256791;61;20578;-62
2021/05/07 06:01:25;0.00;0.00;0.62;0.00;0.00;0.62;1.20;0.70;;;23.80;22.30;;;;;;2257888;61;20361;-62
2021/05/07 06:03:52;0.00;0.00;0.62;0.00;0.00;0.62;1.40;0.70;;;23.80;22.30;;;;;;2257552;61;20588;-61
2021/05/07 06:06:19;0.00;0.00;0.62;0.00;0.00;0.62;1.30;0.90;;;23.80;22.20;;;;;;2256648;61;20736;-62
2021/05/07 06:08:46;0.00;0.00;0.62;0.00;0.00;0.62;1.17;0.70;;;23.80;22.20;;;;;;2257741;61;20579;-60
2021/05/07 06:11:12;0.00;0.00;0.62;0.00;0.00;0.62;1.20;0.70;;;23.80;22.20;;;;;;2257670;61;20364;-60
2021/05/07 06:13:40;0.00;0.00;0.62;0.00;0.00;0.62;1.20;0.80;;;23.80;22.80;;;;;;2256634;61;20356;-62
2021/05/07 06:16:06;0.00;0.00;0.62;0.00;0.00;0.62;2.03;0.80;;;23.80;22.30;;;;;;2257651;61;20388;-62
2021/05/07 06:18:33;0.00;0.00;0.62;0.00;0.00;0.62;1.20;0.70;;;23.80;22.30;;;;;;2257651;61;20570;-62
2021/05/07 06:20:59;0.00;0.00;0.62;0.00;0.00;0.62;1.20;0.70;;;23.80;22.20;;;;;;2256752;61;20439;-60
2021/05/07 06:23:27;0.00;0.00;0.62;0.00;0.00;0.62;1.30;0.83;;;23.80;22.30;;;;;;2257813;61;20610;-60
2021/05/07 06:25:53;0.00;0.00;0.62;0.00;0.00;0.62;1.40;1.00;;;23.80;22.20;;;;;;2257295;61;20376;-60
2021/05/07 06:28:21;0.00;0.00;0.62;0.00;0.00;0.62;1.73;0.70;;;23.80;22.20;;;;;;2256684;61;20715;-60
2021/05/07 06:30:48;0.00;0.00;0.62;0.00;0.00;0.62;1.20;0.70;;;23.80;22.30;;;;;;2257753;61;20363;-63
2021/05/07 06:33:14;0.00;0.00;0.62;0.00;0.00;0.62;1.17;0.70;;;23.80;22.30;;;;;;2257547;61;20352;-63
2021/05/07 06:35:41;0.00;0.00;0.62;0.00;0.00;0.62;1.83;0.90;;;23.80;22.20;;;;;;2256351;61;20384;-60
2021/05/07 06:38:08;0.00;0.00;0.62;0.00;0.00;0.62;1.27;0.87;;;23.80;22.20;;;;;;2257784;61;20696;-59
2021/05/07 06:40:36;0.00;0.00;0.62;0.00;0.00;0.62;1.20;0.70;;;23.80;22.20;;;;;;2257391;61;20628;-61
2021/05/07 06:43:03;0.00;0.00;0.62;0.00;0.00;0.62;1.10;0.60;;;23.80;22.20;;;;;;2256747;61;20371;-60
2021/05/07 06:45:30;0.00;0.00;0.62;0.00;0.00;0.62;1.30;0.90;;;23.80;22.20;;;;;;2257669;61;20752;-60
2021/05/07 06:47:56;0.00;0.00;0.62;0.00;0.00;0.62;1.20;0.87;;;23.80;22.20;;;;;;2257225;61;20359;-62
2021/05/07 06:50:23;0.00;0.00;0.62;0.00;0.00;0.62;1.30;0.70;;;23.80;22.20;;;;;;2256766;61;20717;-59
2021/05/07 06:52:49;0.00;0.00;0.62;0.00;0.00;0.62;1.10;0.60;;;23.80;22.30;;;;;;2257773;61;20363;-63
2021/05/07 06:55:16;0.00;0.00;0.62;0.00;0.00;0.62;1.40;0.80;;;23.80;22.30;;;;;;2256896;61;21110;-62
2021/05/07 06:57:43;0.00;0.00;0.62;0.00;0.00;0.62;1.20;0.70;;;23.80;22.20;;;;;;2256400;61;20367;-61
2021/05/07 07:00:11;0.00;0.00;0.62;0.00;0.00;0.62;1.20;0.80;;;23.80;22.20;;;;;;2257693;61;20364;-59
2021/05/07 07:02:38;0.00;0.00;0.62;0.00;0.00;0.62;1.33;0.90;;;23.80;22.20;;;;;;2257307;61;20368;-62
2021/05/07 07:05:06;0.00;0.00;0.62;0.00;0.00;0.62;1.30;0.93;;;23.80;22.30;;;;;;2256512;61;20384;-63
2021/05/07 07:07:34;0.00;0.00;0.62;0.00;0.00;0.62;1.20;0.70;;;23.80;22.80;;;;;;2257309;61;20356;-60
2021/05/07 07:10:01;0.00;0.00;0.62;0.00;0.00;0.62;1.37;0.77;;;23.80;22.30;;;;;;2257415;61;20357;-60
2021/05/07 07:12:27;0.00;0.00;0.62;0.00;0.00;0.62;1.50;0.90;;;23.70;22.20;;;;;;2256748;61;20700;-60
2021/05/07 07:14:54;0.00;0.00;0.62;0.00;0.00;0.62;1.40;0.93;;;23.70;22.20;;;;;;2257348;61;20391;-60
2021/05/07 07:17:21;0.00;0.00;0.62;0.00;0.00;0.62;2.03;1.10;;;23.80;22.70;;;;;;2253608;61;20380;-60
2021/05/07 07:19:48;0.00;0.00;0.62;0.00;0.00;0.62;2.07;0.90;;;23.80;22.20;;;;;;2256786;61;20739;-60
2021/05/07 07:22:16;0.00;0.00;0.62;0.00;0.00;0.62;1.30;0.83;;;23.80;22.20;;;;;;2257411;61;20359;-62
2021/05/07 07:24:43;0.00;0.00;0.62;0.00;0.00;0.62;1.30;0.90;;;23.70;22.20;;;;;;2257215;61;20372;-59
2021/05/07 07:27:09;0.00;0.00;0.62;0.00;0.00;0.62;1.13;0.73;;;23.80;22.30;;;;;;2256771;61;20357;-62
2021/05/07 07:29:36;0.00;0.00;0.62;0.00;0.00;0.62;1.67;0.80;;;23.80;22.30;;;;;;2257426;61;20694;-61
2021/05/07 07:32:04;0.00;0.00;0.62;0.00;0.00;0.62;1.30;0.90;;;23.70;22.20;;;;;;2257412;61;20356;-61
2021/05/07 07:34:30;0.00;0.00;0.62;0.00;0.00;0.62;1.43;0.83;;;23.80;22.20;;;;;;2256633;61;20451;-62
2021/05/07 07:36:57;0.00;0.00;0.62;0.00;0.00;0.62;1.30;0.80;;;23.80;22.20;;;;;;2256952;61;20389;-60
2021/05/07 07:39:24;0.00;0.00;0.62;0.00;0.00;0.62;1.60;1.03;;;23.70;22.20;;;;;;2253723;61;20476;-61
2021/05/07 07:41:50;0.00;0.00;0.62;0.00;0.00;0.62;1.40;0.67;;;23.80;22.20;;;;;;2256817;61;20352;-61
2021/05/07 07:44:20;0.00;0.00;0.62;0.00;0.00;0.62;2.00;1.20;;;23.70;22.20;;;;;;2257137;61;20368;-61
2021/05/07 07:46:46;0.00;0.00;0.62;0.00;0.00;0.62;1.40;0.80;;;23.80;22.20;;;;;;2257286;61;20356;-60
2021/05/07 07:49:14;0.00;0.00;0.62;0.00;0.00;0.62;1.30;0.80;;;23.80;22.30;;;;;;2256827;61;20363;-60
2021/05/07 07:51:40;0.00;0.00;0.62;0.00;0.00;0.62;1.57;1.03;;;23.80;22.30;;;;;;2257233;61;20396;-61
2021/05/07 07:54:08;0.00;0.00;0.62;0.00;0.00;0.62;1.33;0.90;;;23.80;22.20;;;;;;2253471;61;20363;-61
2021/05/07 07:56:35;0.00;0.00;0.62;0.00;0.00;0.62;1.50;0.93;;;23.80;22.20;;;;;;2256656;61;20389;-60
2021/05/07 07:59:02;0.00;0.00;0.62;0.00;0.00;0.62;2.00;1.03;;;23.70;22.20;;;;;;2257188;61;20447;-61
2021/05/07 08:01:28;0.00;0.00;0.62;0.00;0.00;0.62;1.30;0.90;;;23.80;22.20;;;;;;2257396;61;20407;-61
2021/05/07 08:03:55;0.00;0.00;0.62;0.00;0.00;0.62;1.43;0.90;;;23.80;22.30;;;;;;2256588;61;20356;-61
2021/05/07 08:06:23;0.00;0.00;0.62;0.00;0.00;0.62;1.50;0.97;;;23.80;22.20;;;;;;2257114;61;20381;-61
2021/05/07 08:08:50;0.00;0.00;0.62;0.00;0.00;0.62;1.37;1.00;;;23.80;22.20;;;;;;2257572;61;20395;-61
2021/05/07 08:11:17;0.00;0.00;0.62;0.00;0.00;0.62;1.37;0.80;;;23.80;22.30;;;;;;2257353;61;20607;-61
2021/05/07 08:13:44;0.00;0.00;0.62;0.00;0.00;0.62;1.50;0.90;;;23.80;22.20;;;;;;2257832;61;20588;-62
2021/05/07 08:16:11;0.00;0.00;0.62;0.00;0.00;0.62;1.67;1.10;;;23.80;22.30;;;;;;2257719;61;20399;-61
2021/05/07 08:18:38;0.00;0.00;0.62;0.00;0.00;0.62;1.40;1.07;;;23.80;22.30;;;;;;2257310;61;20724;-61
2021/05/07 08:21:05;0.00;0.00;0.62;0.00;0.00;0.62;1.40;1.00;;;23.80;22.30;;;;;;2257926;61;20356;-60
2021/05/07 08:23:32;0.00;0.00;0.62;0.00;0.00;0.62;1.50;1.00;;;23.80;22.20;;;;;;2257493;61;20448;-60
2021/05/07 08:25:59;0.00;0.00;0.62;0.00;0.00;0.62;1.60;1.20;;;23.80;22.20;;;;;;2257140;61;20743;-60
2021/05/07 08:28:26;0.00;0.00;0.62;0.00;0.00;0.62;1.50;1.10;;;23.80;22.20;;;;;;2257883;61;20367;-61
2021/05/07 08:30:53;0.00;0.00;0.62;0.00;0.00;0.62;1.50;1.00;;;23.80;22.20;;;;;;2257920;61;20357;-61
2021/05/07 08:33:19;0.00;0.00;0.62;0.00;0.00;0.62;1.70;1.20;;;23.80;22.20;;;;;;2257273;61;20403;-60
2021/05/07 08:35:46;0.00;0.00;0.62;0.00;0.00;0.62;1.30;0.90;;;23.80;22.20;;;;;;2257614;61;20392;-60
2021/05/07 08:38:12;0.00;0.00;0.62;0.00;0.00;0.62;1.63;1.00;;;23.80;22.20;;;;;;2257880;61;20360;-61
2021/05/07 08:40:40;0.00;0.00;0.62;0.00;0.00;0.62;1.70;1.13;;;23.80;22.30;;;;;;2257273;61;20444;-61
2021/05/07 08:43:08;0.00;0.00;0.62;0.00;0.00;0.62;1.63;1.00;;;23.80;22.30;;;;;;2257854;61;20364;-61
2021/05/07 08:45:35;0.00;0.00;0.62;0.00;0.00;0.62;1.63;1.10;;;23.80;22.30;;;;;;2257701;61;20689;-61
2021/05/07 08:48:03;0.00;0.00;0.62;0.00;0.00;0.62;1.80;1.20;;;23.80;22.30;;;;;;2256993;61;20471;-61
2021/05/07 08:50:30;0.00;0.00;0.62;0.00;0.00;0.62;1.33;1.03;;;23.80;22.30;;;;;;2257976;61;20371;-61
2021/05/07 08:52:57;0.00;0.00;0.62;0.00;0.00;0.62;1.53;1.07;;;23.80;22.30;;;;;;2257861;61;20585;-61
2021/05/07 08:55:24;0.00;0.00;0.62;0.00;0.00;0.62;1.30;0.80;;;23.80;22.30;;;;;;2256798;61;20396;-60
2021/05/07 08:57:51;0.00;0.00;0.62;0.00;0.00;0.62;2.03;1.17;;;23.80;22.30;;;;;;2257829;61;20345;-60
2021/05/07 09:00:19;0.00;0.00;0.62;0.00;0.00;0.62;1.30;1.00;;;23.80;22.30;;;;;;2257771;61;20369;-60
2021/05/07 09:02:46;0.00;0.00;0.62;0.00;0.00;0.62;1.30;1.00;;;23.80;22.30;;;;;;2257265;61;20688;-61
2021/05/07 09:05:13;0.00;0.00;0.62;0.00;0.00;0.62;1.70;1.40;;;23.80;22.30;;;;;;2257631;61;20387;-61
2021/05/07 09:07:40;0.00;0.00;0.62;0.00;0.00;0.62;1.70;1.27;;;23.80;22.30;;;;;;2257531;61;20580;-61
2021/05/07 09:10:07;0.00;0.00;0.62;0.00;0.00;0.62;1.50;1.07;;;23.90;22.40;;;;;;2257221;61;20363;-63
2021/05/07 09:12:37;0.00;0.00;0.62;0.00;0.00;0.62;2.00;1.40;;;23.90;22.40;;;;;;2257232;61;20398;-61
2021/05/07 09:15:07;0.00;0.00;0.62;0.00;0.00;0.62;1.60;1.10;;;23.90;22.40;;;;;;2257375;61;20740;-60
2021/05/07 09:17:36;0.00;0.00;0.62;0.00;0.00;0.62;1.67;1.10;;;23.90;22.40;;;;;;2257218;61;20380;-60
2021/05/07 09:20:09;0.00;0.00;0.62;0.00;0.00;0.62;1.50;1.00;;;23.90;22.30;;;;;;2257638;61;20368;-61
2021/05/07 09:22:37;0.00;0.00;0.62;0.00;0.00;0.62;1.50;1.10;;;23.90;22.30;;;;;;2257697;61;20364;-60
2021/05/07 09:25:15;0.00;0.00;0.62;0.00;0.00;0.62;1.80;1.07;;;23.90;22.40;;;;;;2256964;61;20382;-60
2021/05/07 09:27:43;0.00;0.00;0.62;0.00;0.00;0.62;1.60;1.27;;;23.90;22.30;;;;;;2257609;61;20394;-60
2021/05/07 09:30:23;0.00;0.00;0.62;0.00;0.00;0.62;1.70;0.93;;;24.00;22.40;;;;;;2257707;61;20368;-60
2021/05/07 09:32:51;0.00;0.00;0.62;0.00;0.00;0.62;1.40;1.00;;;23.90;22.30;;;;;;2257498;61;20368;-60
2021/05/07 09:35:19;0.00;0.00;0.62;0.00;0.00;0.62;1.70;1.20;;;23.90;22.30;;;;;;2257473;61;20376;-60
2021/05/07 09:37:47;0.00;0.00;0.62;0.00;0.00;0.62;2.53;1.53;;;24.00;22.30;;;;;;2257492;61;20358;-62
2021/05/07 09:40:17;0.00;0.00;0.62;0.00;0.00;0.62;1.40;1.20;;;24.00;22.30;;;;;;2257317;61;20364;-60
2021/05/07 09:42:46;0.00;0.00;0.62;0.00;0.00;0.62;1.80;1.20;;;24.00;22.30;;;;;;2257728;61;20392;-62
2021/05/07 09:45:23;0.00;0.00;0.62;0.00;0.00;0.62;1.60;1.10;;;24.00;22.30;;;;;;2257649;61;20385;-61